Mc Donough, Georgia
Current Conditions -  °F | °C
As of 5:52 AM on Monday 22 Dec 2014 (Local Time) from KATL Reporting Station
Drizzle Drizzle  
Wind Chill:   Ceiling: 400
Heat Index:   Visibility: 1mi
Dew Point:   Wind: 15mph
Humidity: 89%   Direction: 90°E
Pressure: 30.02"   Gusts: NA
Location:  33.4528°N, 84.1842°W
Report Text: KATL 221052Z 09013KT 1SM -DZ BR OVC004 08/06 A3002 RMK AO2 SFC VIS 2 1/2 SLP168 CIG 003V005 TWRINC P0000 T00780061
Loading
Personal Weather Stations






























Interactive Weather Map New forecast layout! Learn more

10-Day Weather Forecast

Advertisements
Track Severe Weather on mobile